Time;durP1;ratioP1;P1;durP2;ratioP2;P2;SDS_P1;SDS_P2;PMS_P1;PMS_P2;Temp;Humidity;BMP_temperature;BMP_pressure;BME280_temperature;BME280_humidity;BME280_pressure;Samples;Min_cycle;Max_cycle;Signal;HPM_P1;HPM_P2
2023/08/05 00:04:29;;;;;;;9.98;4.80;;;;;;;13.69;100.00;101697.78;10274243;28;20038;-71
2023/08/05 00:09:29;;;;;;;14.82;5.88;;;;;;;13.65;100.00;101683.69;10291700;28;20474;-71
2023/08/05 00:14:30;;;;;;;10.02;4.75;;;;;;;13.65;100.00;101678.25;10291410;28;20057;-72
2023/08/05 00:19:30;;;;;;;8.48;5.90;;;;;;;13.69;100.00;101685.00;10273957;28;20043;-71
2023/08/05 00:24:30;;;;;;;6.63;5.57;;;;;;;13.90;100.00;101680.50;10292027;28;20035;-72
2023/08/05 00:29:31;;;;;;;9.35;4.97;;;;;;;14.02;100.00;101676.19;10291067;28;20050;-72
2023/08/05 00:34:33;;;;;;;9.52;5.00;;;;;;;14.10;100.00;101659.69;10290784;28;20034;-71
2023/08/05 00:39:34;;;;;;;11.95;5.30;;;;;;;14.16;100.00;101650.69;10291632;28;20467;-71
2023/08/05 00:44:34;;;;;;;6.22;5.22;;;;;;;14.25;100.00;101656.81;10297599;28;20047;-72
2023/08/05 00:49:35;;;;;;;10.55;5.88;;;;;;;14.37;100.00;101652.44;10298368;28;20062;-74
2023/08/05 00:54:35;;;;;;;5.18;4.68;;;;;;;14.51;100.00;101664.25;10296893;28;20035;-71
2023/08/05 00:59:36;;;;;;;8.23;4.63;;;;;;;14.61;100.00;101667.47;10280291;28;20054;-72
2023/08/05 01:04:36;;;;;;;6.00;5.45;;;;;;;14.67;100.00;101664.94;10280423;28;20038;-72
2023/08/05 01:09:37;;;;;;;7.80;5.20;;;;;;;14.74;100.00;101661.19;10297255;28;20046;-71
2023/08/05 01:14:37;;;;;;;11.68;5.95;;;;;;;14.81;100.00;101653.03;10296520;28;20458;-71
2023/08/05 01:19:37;;;;;;;4.57;4.18;;;;;;;14.86;100.00;101654.06;10279525;28;20039;-73
2023/08/05 01:24:50;;;;;;;4.28;3.88;;;;;;;14.92;100.00;101646.94;10279518;28;20467;-71
2023/08/05 01:29:50;;;;;;;7.45;5.18;;;;;;;14.99;100.00;101627.84;10278719;28;20042;-71
2023/08/05 01:34:51;;;;;;;6.47;4.13;;;;;;;14.95;100.00;101629.31;10280371;28;20031;-73
2023/08/05 01:39:51;;;;;;;13.75;5.20;;;;;;;15.02;100.00;101631.00;10301135;28;20046;-72
2023/08/05 01:44:51;;;;;;;10.63;4.10;;;;;;;15.03;100.00;101638.16;10305536;28;20035;-72
2023/08/05 01:49:52;;;;;;;7.45;3.42;;;;;;;15.03;100.00;101621.78;10299006;28;20039;-72
2023/08/05 01:54:52;;;;;;;7.03;4.78;;;;;;;15.04;100.00;101622.63;10294696;28;20034;-72
2023/08/05 01:59:53;;;;;;;6.10;3.80;;;;;;;15.03;100.00;101621.78;10295703;28;20118;-71
2023/08/05 02:04:53;;;;;;;5.50;3.47;;;;;;;15.05;100.00;101619.66;10292942;28;20073;-70
2023/08/05 02:09:53;;;;;;;5.38;2.92;;;;;;;15.08;100.00;101630.16;10294714;28;20112;-72
2023/08/05 02:14:54;;;;;;;3.28;2.97;;;;;;;15.13;100.00;101631.44;10294897;28;20035;-72
2023/08/05 02:19:54;;;;;;;7.30;4.15;;;;;;;15.11;100.00;101604.38;10294161;28;20031;-71
2023/08/05 02:24:55;;;;;;;4.70;2.92;;;;;;;15.00;100.00;101585.91;10294423;28;20031;-71
2023/08/05 02:29:55;;;;;;;4.47;2.85;;;;;;;14.92;100.00;101581.50;10293809;28;20423;-71
2023/08/05 02:34:55;;;;;;;4.60;3.08;;;;;;;14.82;100.00;101573.72;10293271;28;20042;-71
2023/08/05 02:39:56;;;;;;;3.42;3.13;;;;;;;14.73;100.00;101565.97;10293059;28;20059;-70
2023/08/05 02:44:56;;;;;;;3.28;2.78;;;;;;;14.62;100.00;101562.81;10293684;28;20416;-71
2023/08/05 02:49:57;;;;;;;9.13;3.08;;;;;;;14.58;100.00;101550.66;10293257;28;20039;-71
2023/08/05 02:54:57;;;;;;;3.95;2.97;;;;;;;14.58;100.00;101542.50;10274615;28;20378;-71
2023/08/05 02:59:58;;;;;;;11.40;4.38;;;;;;;14.56;100.00;101535.56;10275257;28;20031;-70
2023/08/05 03:04:58;;;;;;;3.97;3.40;;;;;;;14.56;100.00;101539.13;10274903;28;20355;-71
2023/08/05 03:09:58;;;;;;;5.47;4.57;;;;;;;14.58;100.00;101536.16;10292592;28;20090;-71
2023/08/05 03:14:59;;;;;;;5.82;4.47;;;;;;;14.59;100.00;101541.44;10291540;28;20082;-71
2023/08/05 03:20:02;;;;;;;3.53;3.33;;;;;;;14.59;100.00;101527.81;10292739;28;20421;-72
2023/08/05 03:25:03;;;;;;;6.60;3.78;;;;;;;14.57;100.00;101518.97;10275319;28;20069;-73
2023/08/05 03:30:04;;;;;;;7.75;4.82;;;;;;;14.57;100.00;101512.69;10275867;28;20542;-71
2023/08/05 03:35:04;;;;;;;4.47;3.50;;;;;;;14.62;100.00;101507.47;10291939;28;20038;-71
2023/08/05 03:40:05;;;;;;;5.03;4.45;;;;;;;14.65;100.00;101486.06;10275108;28;20431;-72
2023/08/05 03:45:06;;;;;;;11.68;6.10;;;;;;;14.67;100.00;101479.56;10291487;28;20043;-72
2023/08/05 03:50:08;;;;;;;6.32;4.13;;;;;;;14.68;100.00;101471.19;10291151;28;20034;-71
2023/08/05 03:55:08;;;;;;;7.22;4.78;;;;;;;14.67;100.00;101472.22;10273720;28;20110;-72
2023/08/05 04:00:09;;;;;;;6.63;5.78;;;;;;;14.68;100.00;101475.78;10291672;28;20038;-72
2023/08/05 04:05:10;;;;;;;5.32;4.40;;;;;;;14.64;100.00;101456.28;10274365;28;20043;-71
2023/08/05 04:10:12;;;;;;;7.65;5.63;;;;;;;14.64;100.00;101453.56;10294366;28;20114;-71
2023/08/05 04:15:13;;;;;;;7.40;5.13;;;;;;;14.64;100.00;101465.31;10298490;28;20590;-72
2023/08/05 04:20:13;;;;;;;10.57;4.85;;;;;;;14.69;100.00;101450.22;10285365;28;20062;-72
2023/08/05 04:25:14;;;;;;;12.60;4.22;;;;;;;14.69;100.00;101455.66;10296769;28;20039;-70
2023/08/05 04:30:14;;;;;;;5.97;4.93;;;;;;;14.71;100.00;101448.97;10298220;28;20185;-72
2023/08/05 04:35:15;;;;;;;5.03;4.53;;;;;;;14.76;100.00;101440.13;10281485;28;20121;-71
2023/08/05 04:40:15;;;;;;;5.10;4.63;;;;;;;14.76;100.00;101435.53;10282472;28;20058;-71
2023/08/05 04:45:15;;;;;;;10.82;4.90;;;;;;;14.81;100.00;101429.44;10297537;28;20039;-70
2023/08/05 04:50:16;;;;;;;7.53;4.38;;;;;;;14.83;100.00;101425.44;10297408;28;20065;-70
2023/08/05 04:55:16;;;;;;;9.93;3.58;;;;;;;14.85;100.00;101406.16;10297630;28;20474;-71
2023/08/05 05:00:17;;;;;;;6.80;4.50;;;;;;;14.87;100.00;101414.97;10298884;28;20066;-71
2023/08/05 05:05:18;;;;;;;9.00;4.22;;;;;;;14.84;100.00;101399.84;10281387;28;20043;-71
2023/08/05 05:10:18;;;;;;;6.65;5.03;;;;;;;14.88;100.00;101394.81;10295366;28;20038;-70
2023/08/05 05:15:21;;;;;;;6.20;4.03;;;;;;;14.91;100.00;101394.38;10296989;28;20038;-71
2023/08/05 05:20:21;;;;;;;4.15;3.65;;;;;;;14.89;100.00;101391.03;10296918;28;20046;-72
2023/08/05 05:25:22;;;;;;;7.82;4.60;;;;;;;14.93;100.00;101375.06;10263774;28;20058;-70
2023/08/05 05:30:22;;;;;;;3.97;3.60;;;;;;;15.02;100.00;101380.06;10279238;28;20046;-71
2023/08/05 05:35:23;;;;;;;9.13;4.35;;;;;;;15.14;100.00;101371.22;10278661;28;20042;-71
2023/08/05 05:40:23;;;;;;;3.65;3.35;;;;;;;15.21;100.00;101367.41;10279263;28;20051;-70
2023/08/05 05:45:24;;;;;;;4.57;4.18;;;;;;;15.28;100.00;101364.66;10279435;28;20066;-71
2023/08/05 05:50:24;;;;;;;8.27;4.78;;;;;;;15.34;100.00;101370.06;10278277;28;20046;-71
2023/08/05 05:55:24;;;;;;;8.65;3.90;;;;;;;15.39;100.00;101377.63;10296309;28;20054;-72
2023/08/05 06:00:25;;;;;;;4.95;3.70;;;;;;;15.55;100.00;101368.91;10294507;28;20065;-70
2023/08/05 06:05:25;;;;;;;6.75;3.17;;;;;;;15.68;100.00;101353.53;10294870;28;20125;-71
2023/08/05 06:10:26;;;;;;;5.13;4.47;;;;;;;15.74;100.00;101350.78;10294133;28;20546;-71
2023/08/05 06:15:26;;;;;;;6.00;4.95;;;;;;;16.64;100.00;101365.97;10294589;28;20066;-71
2023/08/05 06:20:27;;;;;;;5.13;4.60;;;;;;;17.24;100.00;101344.25;10294602;28;20047;-71
2023/08/05 06:25:27;;;;;;;7.07;5.13;;;;;;;18.43;100.00;101341.53;10294374;28;20042;-71
2023/08/05 06:30:28;;;;;;;8.27;4.80;;;;;;;19.86;100.00;101341.72;10293366;28;20452;-71
2023/08/05 06:35:28;;;;;;;6.82;4.78;;;;;;;19.00;100.00;101346.38;10293726;28;20065;-70
2023/08/05 06:40:29;;;;;;;5.68;4.78;;;;;;;18.56;100.00;101334.97;10294511;28;20073;-72
2023/08/05 06:45:31;;;;;;;5.35;4.85;;;;;;;18.57;100.00;101336.66;10278116;28;20482;-70
2023/08/05 06:50:32;;;;;;;8.90;5.30;;;;;;;18.47;100.00;101311.72;10280591;28;20093;-71
2023/08/05 06:55:33;;;;;;;4.18;3.78;;;;;;;18.66;100.00;101304.19;10275785;28;20035;-71
2023/08/05 07:00:33;;;;;;;8.85;5.47;;;;;;;18.65;100.00;101294.31;10293239;28;20045;-71
2023/08/05 07:05:35;;;;;;;13.38;6.30;;;;;;;18.13;100.00;101295.06;10275662;28;20578;-70
2023/08/05 07:10:36;;;;;;;4.70;4.35;;;;;;;18.08;100.00;101295.75;10293267;28;20058;-70
2023/08/05 07:15:37;;;;;;;4.63;4.32;;;;;;;18.24;100.00;101294.22;10292413;28;20135;-69
2023/08/05 07:20:40;;;;;;;4.90;4.50;;;;;;;18.64;100.00;101288.00;10292882;28;20459;-72
2023/08/05 07:25:40;;;;;;;6.78;6.10;;;;;;;18.41;100.00;101282.53;10275036;28;20371;-71
2023/08/05 07:30:40;;;;;;;6.22;5.70;;;;;;;18.40;100.00;101278.13;10274771;28;20043;-71
2023/08/05 07:35:41;;;;;;;7.20;3.92;;;;;;;19.19;100.00;101275.66;10292789;28;20061;-71
2023/08/05 07:40:41;;;;;;;10.23;4.88;;;;;;;20.18;100.00;101275.16;10291248;28;20062;-71
2023/08/05 07:45:42;;;;;;;4.35;3.95;;;;;;;20.07;100.00;101267.81;10292993;28;20126;-71
2023/08/05 07:50:42;;;;;;;10.10;4.88;;;;;;;20.23;100.00;101250.50;10295739;28;20116;-71
2023/08/05 07:55:43;;;;;;;5.80;4.68;;;;;;;20.20;100.00;101256.50;10300357;28;20038;-70
2023/08/05 08:00:44;;;;;;;10.13;4.18;;;;;;;19.94;100.00;101250.63;10298958;28;20035;-71
2023/08/05 08:05:44;;;;;;;8.57;4.05;;;;;;;19.31;100.00;101237.19;10299329;28;20425;-72
2023/08/05 08:10:46;;;;;;;6.13;5.53;;;;;;;20.12;100.00;101223.94;10300491;28;20074;-70
2023/08/05 08:15:46;;;;;;;4.60;4.20;;;;;;;21.31;100.00;101212.16;10299356;28;20065;-71
2023/08/05 08:20:53;;;;;;;5.13;4.63;;;;;;;21.20;100.00;101215.06;10299502;28;20039;-70
2023/08/05 08:25:56;;;;;;;7.88;4.63;;;;;;;20.74;100.00;101209.06;10298234;28;20042;-72
2023/08/05 08:30:57;;;;;;;5.78;4.50;;;;;;;20.18;100.00;101204.50;10297938;28;20034;-71
2023/08/05 08:35:57;;;;;;;5.15;4.40;;;;;;;19.68;100.00;101186.16;10297093;28;20039;-71
2023/08/05 08:40:58;;;;;;;4.47;3.47;;;;;;;19.49;100.00;101182.81;10298453;28;20055;-72
2023/08/05 08:45:59;;;;;;;7.28;4.38;;;;;;;19.55;100.00;101182.91;10297769;28;20046;-71
2023/08/05 08:50:59;;;;;;;7.93;4.15;;;;;;;19.58;100.00;101177.75;10297391;28;20117;-70
2023/08/05 08:55:59;;;;;;;4.35;4.03;;;;;;;19.28;100.00;101164.34;10264143;28;20097;-72
2023/08/05 09:01:00;;;;;;;5.03;4.15;;;;;;;19.03;100.00;101165.56;10279831;28;20463;-71
2023/08/05 09:06:00;;;;;;;7.28;4.70;;;;;;;18.83;100.00;101158.91;10279769;28;20467;-71
2023/08/05 09:11:01;;;;;;;11.80;4.88;;;;;;;18.78;100.00;101152.22;10279378;28;20039;-70
2023/08/05 09:16:01;;;;;;;3.92;3.38;;;;;;;18.74;100.00;101145.56;10299271;28;20038;-70
2023/08/05 09:21:02;;;;;;;5.65;3.65;;;;;;;18.56;100.00;101145.72;10299477;28;20360;-70
2023/08/05 09:26:02;;;;;;;2.28;2.08;;;;;;;18.66;100.00;101140.44;10279263;28;20541;-71
2023/08/05 09:31:16;;;;;;;4.15;3.05;;;;;;;18.65;100.00;101125.06;10280197;28;20042;-71
2023/08/05 09:36:17;;;;;;;3.88;2.55;;;;;;;18.61;100.00;101120.31;10296165;28;20031;-71
2023/08/05 09:41:31;;;;;;;6.93;3.17;;;;;;;18.92;100.00;101119.84;10296094;28;20113;-71
2023/08/05 09:46:40;;;;;;;6.50;3.22;;;;;;;18.94;100.00;101116.81;10279431;28;20133;-71
2023/08/05 09:51:45;;;;;;;2.30;2.10;;;;;;;19.92;100.00;101109.03;10295626;28;20068;-70
2023/08/05 09:56:46;;;;;;;3.22;3.03;;;;;;;20.03;100.00;101105.31;10294999;28;20054;-72
2023/08/05 10:01:47;;;;;;;3.03;2.78;;;;;;;19.68;100.00;101087.25;10296119;28;20068;-72
2023/08/05 10:06:47;;;;;;;8.10;4.05;;;;;;;19.57;100.00;101073.63;10295285;28;20026;-72
2023/08/05 10:11:48;;;;;;;4.43;3.22;;;;;;;19.19;100.00;101081.56;10276918;28;20439;-72
2023/08/05 10:16:48;;;;;;;4.38;3.95;;;;;;;19.09;100.00;101086.91;10294144;28;20063;-75
2023/08/05 10:21:49;;;;;;;6.07;3.75;;;;;;;18.92;100.00;101080.56;10278517;28;20439;-73
2023/08/05 10:26:49;;;;;;;8.50;3.78;;;;;;;18.58;100.00;101075.00;10294261;28;20027;-72
2023/08/05 10:31:50;;;;;;;4.10;3.42;;;;;;;18.34;100.00;101063.31;10278225;28;20033;-72
2023/08/05 10:36:55;;;;;;;7.68;3.78;;;;;;;17.88;100.00;101071.47;10623561;27;1278046;-74
2023/08/05 10:41:55;;;;;;;4.63;3.95;;;;;;;17.52;100.00;101071.75;10578574;28;20114;-75
2023/08/05 10:46:56;;;;;;;4.85;4.45;;;;;;;17.23;100.00;101070.75;10596540;28;20411;-73
2023/08/05 10:51:57;;;;;;;8.25;4.78;;;;;;;17.21;100.00;101071.00;10595794;28;20037;-72
2023/08/05 10:56:57;;;;;;;20.65;6.07;;;;;;;17.16;100.00;101076.34;10612675;28;20030;-72
2023/08/05 11:01:58;;;;;;;5.90;4.82;;;;;;;16.99;100.00;101053.50;10613488;28;20446;-72
2023/08/05 11:07:00;;;;;;;11.27;4.63;;;;;;;17.34;100.00;101048.88;10613729;27;20027;-73
2023/08/05 11:12:01;;;;;;;4.00;3.53;;;;;;;17.57;100.00;101038.97;10606588;28;20034;-73
2023/08/05 11:17:07;;;;;;;9.60;3.63;;;;;;;17.60;100.00;101042.06;10591677;28;20485;-73
2023/08/05 11:22:07;;;;;;;5.18;3.70;;;;;;;17.38;100.00;101033.63;10594600;28;20339;-72
2023/08/05 11:27:07;;;;;;;3.42;2.67;;;;;;;17.20;100.00;101055.69;10610997;28;20027;-74
2023/08/05 11:32:08;;;;;;;14.57;4.50;;;;;;;17.01;100.00;101037.72;10610461;28;20076;-74
2023/08/05 11:37:08;;;;;;;10.57;4.82;;;;;;;16.84;100.00;101026.59;10611033;27;20054;-73
2023/08/05 11:42:10;;;;;;;10.05;5.80;;;;;;;16.33;100.00;101037.03;10610379;28;20313;-71
2023/08/05 11:47:10;;;;;;;10.85;5.75;;;;;;;15.96;100.00;101017.19;10572807;28;20027;-72
2023/08/05 11:52:11;;;;;;;5.18;4.72;;;;;;;15.90;100.00;101016.19;10584618;28;20363;-73
2023/08/05 11:57:18;;;;;;;6.22;5.05;;;;;;;15.89;100.00;101011.81;10584797;28;20092;-71
2023/08/05 12:02:19;;;;;;;6.85;4.40;;;;;;;15.88;100.00;101007.38;10582815;28;20031;-72
2023/08/05 12:07:20;;;;;;;14.18;6.10;;;;;;;16.19;100.00;101008.25;10582661;28;20354;-71
2023/08/05 12:12:20;;;;;;;7.50;5.82;;;;;;;16.45;100.00;100998.81;10581940;28;20077;-72
2023/08/05 12:17:21;;;;;;;6.60;5.90;;;;;;;16.56;100.00;100998.03;10581679;28;20510;-68
2023/08/05 12:22:22;;;;;;;12.10;5.20;;;;;;;16.77;100.00;100979.41;10581599;28;20063;-70
2023/08/05 12:27:22;;;;;;;12.52;5.57;;;;;;;17.19;100.00;100971.91;10581997;27;20032;-70
2023/08/05 12:32:22;;;;;;;9.02;4.10;;;;;;;16.77;100.00;100966.56;10563766;28;20051;-70
2023/08/05 12:37:23;;;;;;;9.32;3.85;;;;;;;16.39;100.00;100958.75;10581019;28;20075;-70
2023/08/05 12:42:23;;;;;;;7.50;3.13;;;;;;;16.09;100.00;100954.16;10579792;28;20501;-68
2023/08/05 12:47:24;;;;;;;3.78;3.47;;;;;;;16.00;100.00;100940.00;10579971;28;20039;-69
2023/08/05 12:52:25;;;;;;;2.00;1.90;;;;;;;15.69;100.00;100926.56;10583207;28;20035;-70
2023/08/05 12:57:25;;;;;;;3.40;2.70;;;;;;;15.54;100.00;100919.59;10581322;28;20047;-68
2023/08/05 13:02:25;;;;;;;2.50;2.30;;;;;;;16.07;100.00;100904.38;10563577;28;20259;-69
2023/08/05 13:07:26;;;;;;;2.70;2.50;;;;;;;16.29;100.00;100896.47;10580889;28;20038;-69
2023/08/05 13:12:26;;;;;;;2.50;1.98;;;;;;;16.15;100.00;100878.66;10578496;28;20034;-70
2023/08/05 13:17:27;;;;;;;2.50;1.98;;;;;;;16.15;100.00;100889.56;10561611;28;20040;-69
2023/08/05 13:22:27;;;;;;;2.50;2.30;;;;;;;16.13;100.00;100872.56;10561274;28;20112;-69
2023/08/05 13:27:28;;;;;;;2.78;2.20;;;;;;;16.28;100.00;100857.38;10577826;28;20399;-69
2023/08/05 13:32:28;;;;;;;3.88;3.25;;;;;;;16.28;100.00;100856.56;10579078;28;20043;-69
2023/08/05 13:37:28;;;;;;;8.27;3.72;;;;;;;16.24;100.00;100853.47;10579943;28;20051;-68
2023/08/05 13:42:29;;;;;;;7.47;3.47;;;;;;;16.03;100.00;100852.13;10580311;28;20355;-69
2023/08/05 13:47:29;;;;;;;4.80;3.30;;;;;;;15.68;100.00;100845.75;10581506;28;20043;-70
2023/08/05 13:52:30;;;;;;;5.13;3.05;;;;;;;15.51;100.00;100854.56;10581232;28;20035;-70
2023/08/05 13:57:30;;;;;;;2.60;1.90;;;;;;;15.41;100.00;100853.44;10579601;28;20122;-69
2023/08/05 14:02:31;;;;;;;5.95;2.78;;;;;;;15.39;100.00;100841.94;10580823;28;20058;-70
2023/08/05 14:07:31;;;;;;;4.10;3.55;;;;;;;15.83;100.00;100818.03;10577993;28;20059;-69
2023/08/05 14:12:31;;;;;;;3.40;2.50;;;;;;;16.37;100.00;100816.03;10577889;28;20035;-70
2023/08/05 14:17:32;;;;;;;4.15;3.40;;;;;;;16.78;100.00;100822.44;10578887;28;20043;-73
2023/08/05 14:22:33;;;;;;;10.75;3.80;;;;;;;17.12;100.00;100813.31;10579724;28;20452;-70
2023/08/05 14:27:33;;;;;;;13.35;3.15;;;;;;;17.13;100.00;100803.19;10578247;28;20255;-69
2023/08/05 14:32:33;;;;;;;14.65;4.15;;;;;;;17.11;100.00;100808.09;10575952;28;20032;-70
2023/08/05 14:37:34;;;;;;;7.18;3.28;;;;;;;17.15;100.00;100801.06;10578956;28;20193;-70
2023/08/05 14:42:34;;;;;;;9.77;3.45;;;;;;;17.32;100.00;100785.50;10577025;28;20223;-71
2023/08/05 14:47:35;;;;;;;5.13;3.53;;;;;;;17.33;100.00;100787.19;10577480;28;20036;-71
2023/08/05 14:52:35;;;;;;;13.15;3.28;;;;;;;17.32;100.00;100779.22;10578199;28;20398;-70
2023/08/05 14:57:37;;;;;;;5.70;3.92;;;;;;;17.12;100.00;100768.72;10579383;28;20118;-71
2023/08/05 15:02:37;;;;;;;4.68;3.90;;;;;;;17.05;100.00;100760.66;10578823;28;20470;-71
2023/08/05 15:07:37;;;;;;;6.00;3.75;;;;;;;17.02;100.00;100758.41;10577703;28;20213;-70
2023/08/05 15:12:38;;;;;;;5.65;4.10;;;;;;;17.02;100.00;100743.91;10577283;28;20143;-70
2023/08/05 15:17:41;;;;;;;7.72;4.70;;;;;;;16.88;100.00;100748.81;10577916;28;20036;-71
2023/08/05 15:22:41;;;;;;;3.58;3.13;;;;;;;16.81;100.00;100732.53;10582552;28;20036;-71
2023/08/05 15:27:42;;;;;;;2.85;1.98;;;;;;;16.91;100.00;100729.19;10586296;28;20038;-71
2023/08/05 15:32:42;;;;;;;6.70;2.88;;;;;;;16.88;100.00;100725.03;10584396;28;20104;-71
2023/08/05 15:37:42;;;;;;;2.67;2.47;;;;;;;17.19;100.00;100703.72;10584086;28;20063;-68
2023/08/05 15:42:43;;;;;;;3.50;2.10;;;;;;;17.36;100.00;100688.16;10594583;28;20078;-69
2023/08/05 15:47:43;;;;;;;7.10;2.80;;;;;;;17.38;100.00;100676.97;10584714;28;20474;-70
2023/08/05 15:52:47;;;;;;;4.65;3.05;;;;;;;17.05;100.00;100666.81;10584634;28;20032;-69
2023/08/05 15:57:48;;;;;;;2.85;2.45;;;;;;;16.64;100.00;100663.28;10584318;28;20474;-69
2023/08/05 16:02:48;;;;;;;4.20;2.33;;;;;;;16.63;100.00;100687.06;10584020;28;20035;-69
2023/08/05 16:07:49;;;;;;;2.67;2.47;;;;;;;16.13;100.00;100665.78;10583757;28;20032;-70
2023/08/05 16:12:49;;;;;;;3.47;2.85;;;;;;;15.92;100.00;100648.13;10583283;28;20028;-70
2023/08/05 16:17:50;;;;;;;8.15;3.25;;;;;;;16.09;100.00;100648.22;10582369;28;20066;-69
2023/08/05 16:22:51;;;;;;;2.92;2.60;;;;;;;16.22;100.00;100641.66;10583891;28;20035;-70
2023/08/05 16:27:52;;;;;;;2.65;2.45;;;;;;;16.46;100.00;100628.75;10585181;27;20050;-69
2023/08/05 16:32:53;;;;;;;4.68;2.45;;;;;;;16.58;100.00;100618.59;10584121;28;20047;-69
2023/08/05 16:37:53;;;;;;;6.75;3.08;;;;;;;16.36;100.00;100618.44;10583750;28;20044;-71
2023/08/05 16:42:54;;;;;;;5.20;2.90;;;;;;;16.30;100.00;100618.56;10546702;28;20057;-69
2023/08/05 16:47:54;;;;;;;3.55;3.25;;;;;;;16.17;100.00;100616.94;10582905;28;20080;-70
2023/08/05 16:52:54;;;;;;;2.50;2.30;;;;;;;16.11;100.00;100604.25;10581524;28;20070;-71
2023/08/05 16:57:55;;;;;;;2.28;2.08;;;;;;;16.15;100.00;100589.88;10581466;28;20466;-71
2023/08/05 17:02:55;;;;;;;2.42;2.22;;;;;;;16.24;100.00;100579.38;10581281;28;20096;-71
2023/08/05 17:07:56;;;;;;;3.35;2.17;;;;;;;16.49;100.00;100590.00;10579744;28;20031;-71
2023/08/05 17:12:56;;;;;;;3.30;2.90;;;;;;;16.49;100.00;100579.06;10561607;28;20119;-71
2023/08/05 17:17:56;;;;;;;2.05;1.90;;;;;;;16.28;100.00;100575.13;10580004;27;20067;-70
2023/08/05 17:22:57;;;;;;;2.03;1.67;;;;;;;16.27;100.00;100574.28;10580550;28;20399;-71
2023/08/05 17:27:57;;;;;;;2.67;1.88;;;;;;;16.17;100.00;100559.59;10579380;28;20066;-70
2023/08/05 17:32:58;;;;;;;1.65;1.55;;;;;;;15.99;100.00;100549.69;10578658;28;20382;-70
2023/08/05 17:37:58;;;;;;;3.38;2.75;;;;;;;16.03;100.00;100546.22;10578882;28;20179;-71
2023/08/05 17:42:59;;;;;;;2.83;2.63;;;;;;;15.98;100.00;100558.94;10563612;28;20463;-71
2023/08/05 17:47:59;;;;;;;7.00;2.72;;;;;;;15.92;100.00;100552.56;10580237;28;20217;-70
2023/08/05 17:53:00;;;;;;;3.00;2.58;;;;;;;15.95;100.00;100548.47;10579000;28;20032;-72
2023/08/05 17:58:00;;;;;;;7.30;3.08;;;;;;;15.89;100.00;100546.72;10577249;28;20032;-69
2023/08/05 18:03:01;;;;;;;3.90;2.00;;;;;;;15.85;100.00;100531.91;10576740;28;20114;-71
2023/08/05 18:08:01;;;;;;;4.88;2.17;;;;;;;15.80;100.00;100532.63;10577528;28;20039;-71
2023/08/05 18:13:01;;;;;;;5.90;2.40;;;;;;;15.78;100.00;100534.75;10576709;28;20060;-70
2023/08/05 18:18:02;;;;;;;1.90;1.80;;;;;;;15.64;100.00;100520.53;10576248;28;20036;-71
2023/08/05 18:23:02;;;;;;;4.90;2.92;;;;;;;15.49;100.00;100522.91;10559377;28;20031;-71
2023/08/05 18:28:03;;;;;;;12.18;2.83;;;;;;;15.30;100.00;100514.03;10576925;28;20533;-70
2023/08/05 18:33:03;;;;;;;4.05;3.35;;;;;;;15.31;100.00;100510.22;10576069;28;20046;-71
2023/08/05 18:38:04;;;;;;;4.70;2.95;;;;;;;15.32;100.00;100522.81;10577666;28;20113;-71
2023/08/05 18:43:04;;;;;;;3.20;2.45;;;;;;;15.37;100.00;100514.72;10576591;28;20036;-70
2023/08/05 18:48:05;;;;;;;5.50;3.00;;;;;;;15.30;100.00;100512.13;10576922;28;20036;-71
2023/08/05 18:53:06;;;;;;;10.52;3.67;;;;;;;15.32;100.00;100510.00;10575777;28;20501;-71
2023/08/05 18:58:07;;;;;;;3.92;2.58;;;;;;;15.42;100.00;100514.84;10566344;28;20104;-70
2023/08/05 19:03:07;;;;;;;3.70;3.25;;;;;;;15.49;100.00;100496.44;10583570;28;20127;-73
2023/08/05 19:08:08;;;;;;;2.85;2.45;;;;;;;15.47;100.00;100506.75;10584045;28;20063;-69
2023/08/05 19:13:08;;;;;;;4.43;2.35;;;;;;;15.55;100.00;100497.41;10584658;28;20051;-71
2023/08/05 19:18:12;;;;;;;3.15;2.83;;;;;;;15.63;100.00;100497.00;10549522;28;20042;-70
2023/08/05 19:23:12;;;;;;;2.25;2.05;;;;;;;15.59;100.00;100496.66;10585804;27;20088;-71
2023/08/05 19:28:13;;;;;;;2.70;2.50;;;;;;;15.55;100.00;100492.75;10585685;28;20062;-73
2023/08/05 19:33:13;;;;;;;3.97;2.83;;;;;;;15.59;100.00;100496.66;10567067;28;20048;-71
2023/08/05 19:38:14;;;;;;;7.93;3.67;;;;;;;15.53;100.00;100481.25;10583812;28;20094;-71
2023/08/05 19:43:14;;;;;;;2.75;2.55;;;;;;;15.54;100.00;100487.56;10564824;28;20484;-70
2023/08/05 19:48:15;;;;;;;5.38;3.03;;;;;;;15.57;100.00;100482.44;10583550;28;20084;-71
2023/08/05 19:53:15;;;;;;;4.50;2.85;;;;;;;15.62;100.00;100480.88;10582175;28;20119;-70
2023/08/05 19:58:15;;;;;;;7.68;3.40;;;;;;;15.57;100.00;100474.25;10582854;28;20028;-70
2023/08/05 20:03:16;;;;;;;4.70;3.20;;;;;;;15.50;100.00;100465.34;10582069;28;20043;-70
2023/08/05 20:08:17;;;;;;;6.65;3.05;;;;;;;15.48;100.00;100462.06;10582352;28;20402;-72
2023/08/05 20:13:17;;;;;;;7.30;3.60;;;;;;;15.37;100.00;100456.63;10581671;28;20040;-72
2023/08/05 20:18:20;;;;;;;3.22;3.00;;;;;;;15.29;100.00;100452.38;10581013;28;20036;-70
2023/08/05 20:23:20;;;;;;;16.52;3.90;;;;;;;15.20;100.00;100456.53;10564230;28;20035;-71
2023/08/05 20:28:21;;;;;;;5.18;3.35;;;;;;;15.07;100.00;100461.16;10580654;28;20412;-70
2023/08/05 20:33:21;;;;;;;3.63;2.92;;;;;;;15.06;100.00;100459.50;10582006;28;20094;-69
2023/08/05 20:38:22;;;;;;;3.67;3.15;;;;;;;14.99;100.00;100458.78;10582338;28;20055;-66
2023/08/05 20:43:23;;;;;;;8.30;4.68;;;;;;;14.88;100.00;100456.91;10580162;28;20122;-67
2023/08/05 20:48:23;;;;;;;4.18;3.88;;;;;;;14.77;100.00;100455.84;10563341;28;20040;-66
2023/08/05 20:53:24;;;;;;;4.20;3.80;;;;;;;14.76;100.00;100450.59;10580990;28;20032;-67
2023/08/05 20:58:24;;;;;;;0.30;0.30;;;;;;;14.73;100.00;100442.91;10581652;28;20131;-68
2023/08/05 21:03:25;;;;;;;2.25;2.08;;;;;;;14.68;100.00;100446.34;10581275;28;20394;-68
2023/08/05 21:08:25;;;;;;;0.30;0.30;;;;;;;14.67;100.00;100433.75;10580849;28;20055;-69
2023/08/05 21:13:25;;;;;;;0.73;0.73;;;;;;;14.70;100.00;100432.47;10578769;28;20023;-67
2023/08/05 21:18:26;;;;;;;0.40;0.40;;;;;;;14.73;100.00;100432.00;10577425;28;20055;-68
2023/08/05 21:23:26;;;;;;;0.40;0.40;;;;;;;14.71;100.00;100432.25;10580231;28;20028;-69
2023/08/05 21:28:27;;;;;;;0.30;0.30;;;;;;;14.74;100.00;100426.31;10580206;28;20055;-68
2023/08/05 21:33:27;;;;;;;0.40;0.40;;;;;;;14.76;100.00;100428.78;10578141;28;20164;-67
2023/08/05 21:38:28;;;;;;;0.80;0.80;;;;;;;14.72;100.00;100422.16;10578599;28;20031;-68
2023/08/05 21:43:28;;;;;;;1.17;1.17;;;;;;;14.71;100.00;100423.22;10577696;28;20031;-68
2023/08/05 21:48:30;;;;;;;1.02;1.02;;;;;;;14.67;100.00;100411.97;10579481;28;20031;-68
2023/08/05 21:53:30;;;;;;;0.30;0.30;;;;;;;14.62;100.00;100409.13;10577898;28;20032;-69
2023/08/05 21:58:31;;;;;;;0.40;0.40;;;;;;;14.63;100.00;100405.34;10578514;28;20035;-68
2023/08/05 22:03:31;;;;;;;0.30;0.30;;;;;;;14.61;100.00;100405.59;10581640;28;20462;-68
2023/08/05 22:08:32;;;;;;;0.60;0.60;;;;;;;14.56;100.00;100394.56;10578618;28;20039;-68
2023/08/05 22:13:33;;;;;;;0.68;0.68;;;;;;;14.54;100.00;100399.41;10576824;28;20027;-69
2023/08/05 22:18:33;;;;;;;0.60;0.60;;;;;;;14.53;100.00;100405.09;10577569;28;20058;-69
2023/08/05 22:23:34;;;;;;;0.93;0.93;;;;;;;14.48;100.00;100397.56;10578529;28;20118;-69
2023/08/05 22:28:34;;;;;;;0.82;0.82;;;;;;;14.48;100.00;100394.03;10577040;28;20035;-69
2023/08/05 22:33:35;;;;;;;0.45;0.45;;;;;;;14.55;100.00;100392.03;10575948;28;20398;-69
2023/08/05 22:38:35;;;;;;;0.70;0.70;;;;;;;14.55;100.00;100392.91;10578388;28;20059;-69
2023/08/05 22:43:35;;;;;;;0.73;0.73;;;;;;;14.58;100.00;100388.84;10576240;28;20031;-70
2023/08/05 22:48:36;;;;;;;0.40;0.40;;;;;;;14.51;100.00;100383.50;10577892;28;20070;-68